createdAt,value
2019-04-04T00:02:10.536Z,8.40
2019-04-04T00:04:42.505Z,8.40
2019-04-04T00:07:14.464Z,8.40
2019-04-04T00:09:46.416Z,8.30
2019-04-04T00:12:18.702Z,8.30
2019-04-04T00:14:50.664Z,8.30
2019-04-04T00:17:23.752Z,8.30
2019-04-04T00:19:55.747Z,8.30
2019-04-04T00:22:27.808Z,8.30
2019-04-04T00:25:00.240Z,8.30
2019-04-04T00:27:32.182Z,8.30
2019-04-04T00:30:04.324Z,8.30
2019-04-04T00:32:36.294Z,8.30
2019-04-04T00:35:08.675Z,8.30
2019-04-04T00:37:41.489Z,8.30
2019-04-04T00:40:14.602Z,8.30
2019-04-04T00:42:49.309Z,8.20
2019-04-04T00:45:21.275Z,8.20
2019-04-04T00:47:53.303Z,8.20
2019-04-04T00:50:25.272Z,8.20
2019-04-04T00:52:57.333Z,8.20
2019-04-04T00:55:29.286Z,8.20
2019-04-04T00:58:01.254Z,8.20
2019-04-04T01:00:33.255Z,8.20
2019-04-04T01:03:05.216Z,8.10
2019-04-04T01:05:37.188Z,8.10
2019-04-04T01:08:09.161Z,8.10
2019-04-04T01:10:41.127Z,8.00
2019-04-04T01:13:13.088Z,8.00
2019-04-04T01:15:45.065Z,8.00
2019-04-04T01:18:17.354Z,8.00
2019-04-04T01:20:50.645Z,8.00
2019-04-04T01:23:26.856Z,8.00
2019-04-04T01:25:57.135Z,8.10
2019-04-04T01:28:29.191Z,8.10
2019-04-04T01:31:01.296Z,8.00
2019-04-04T01:33:33.260Z,7.90
2019-04-04T01:36:05.577Z,7.90
2019-04-04T01:38:37.511Z,7.90
2019-04-04T01:41:09.445Z,7.90
2019-04-04T01:43:41.380Z,7.90
2019-04-04T01:46:15.258Z,7.90
2019-04-04T01:48:49.707Z,8.00
2019-04-04T01:51:20.991Z,8.00
2019-04-04T01:53:53.468Z,8.00
2019-04-04T01:56:25.543Z,8.00
2019-04-04T01:58:57.902Z,8.00
2019-04-04T02:01:29.871Z,8.00
2019-04-04T02:04:01.792Z,7.90
2019-04-04T02:06:33.730Z,7.80
2019-04-04T02:09:07.854Z,7.80
2019-04-04T02:11:39.785Z,7.80
2019-04-04T02:14:12.389Z,7.80
2019-04-04T02:16:47.527Z,7.80
2019-04-04T02:19:18.371Z,7.80
2019-04-04T02:21:50.313Z,7.80
2019-04-04T02:24:22.663Z,7.80
2019-04-04T02:26:55.455Z,7.80
2019-04-04T02:29:27.381Z,7.80
2019-04-04T02:32:01.832Z,7.80
2019-04-04T02:34:37.508Z,7.70
2019-04-04T02:37:07.803Z,7.70
2019-04-04T02:39:40.014Z,7.60
2019-04-04T02:42:12.693Z,7.50
2019-04-04T02:44:44.686Z,7.50
2019-04-04T02:47:18.198Z,7.50
2019-04-04T02:49:50.545Z,7.50
2019-04-04T02:52:22.478Z,7.40
2019-04-04T02:54:57.008Z,7.50
2019-04-04T02:57:28.316Z,7.50
2019-04-04T03:00:00.562Z,7.40
2019-04-04T03:02:36.159Z,7.40
2019-04-04T03:05:06.657Z,7.40
2019-04-04T03:07:38.570Z,7.40
2019-04-04T03:10:15.137Z,7.30
2019-04-04T03:12:45.243Z,7.30
2019-04-04T03:15:17.659Z,7.40
2019-04-04T03:17:50.421Z,7.40
2019-04-04T03:20:22.338Z,7.40
2019-04-04T03:22:54.260Z,7.40
2019-04-04T03:25:26.157Z,7.50
2019-04-04T03:27:59.316Z,7.50
2019-04-04T03:30:31.341Z,7.50
2019-04-04T03:33:03.274Z,7.50
2019-04-04T03:35:35.520Z,7.50
2019-04-04T03:38:07.453Z,7.50
2019-04-04T03:40:41.814Z,7.40
2019-04-04T03:43:15.902Z,7.40
2019-04-04T03:45:47.071Z,7.40
2019-04-04T03:48:19.002Z,7.40
2019-04-04T03:50:50.929Z,7.50
2019-04-04T03:53:23.351Z,7.60
2019-04-04T03:56:00.148Z,7.60
2019-04-04T03:58:30.286Z,7.60
2019-04-04T04:01:02.257Z,7.60
2019-04-04T04:03:34.184Z,7.50
2019-04-04T04:06:09.107Z,7.50
2019-04-04T04:08:40.163Z,7.40
2019-04-04T04:11:12.089Z,7.40
2019-04-04T04:13:44.025Z,7.40
2019-04-04T04:16:15.975Z,7.40
2019-04-04T04:18:47.875Z,7.40
2019-04-04T04:21:19.799Z,7.40
2019-04-04T04:23:56.195Z,7.40
2019-04-04T04:26:26.212Z,7.30
2019-04-04T04:28:58.548Z,7.30
2019-04-04T04:31:30.908Z,7.40
2019-04-04T04:34:03.267Z,7.40
2019-04-04T04:36:35.203Z,7.40
2019-04-04T04:39:08.138Z,7.50
2019-04-04T04:41:40.490Z,7.50
2019-04-04T04:44:12.843Z,7.60
2019-04-04T04:46:44.743Z,7.60
2019-04-04T04:49:17.095Z,7.60
2019-04-04T04:51:49.712Z,7.50
2019-04-04T04:54:22.724Z,7.50
2019-04-04T04:56:55.448Z,7.50
2019-04-04T04:59:27.425Z,7.60
2019-04-04T05:01:59.671Z,7.50
2019-04-04T05:04:31.609Z,7.50
2019-04-04T05:07:07.131Z,7.40
2019-04-04T05:09:37.640Z,7.40
2019-04-04T05:12:09.720Z,7.40
2019-04-04T05:14:42.165Z,7.40
2019-04-04T05:17:14.432Z,7.50
2019-04-04T05:19:48.155Z,7.40
2019-04-04T05:22:20.010Z,7.40
2019-04-04T05:25:06.777Z,7.50
2019-04-04T05:27:26.316Z,7.50
2019-04-04T05:29:58.249Z,7.50
2019-04-04T05:32:30.612Z,7.40
2019-04-04T05:35:02.569Z,7.50
2019-04-04T05:37:37.873Z,7.50
2019-04-04T05:40:09.945Z,7.50
2019-04-04T05:42:41.862Z,7.50
2019-04-04T05:45:15.030Z,7.50
2019-04-04T05:47:47.011Z,7.50
2019-04-04T05:50:18.942Z,7.60
2019-04-04T05:52:50.869Z,7.60
2019-04-04T05:55:22.839Z,7.60
2019-04-04T05:57:55.098Z,7.60
2019-04-04T06:00:27.952Z,7.60
2019-04-04T06:03:00.603Z,7.60
2019-04-04T06:05:32.889Z,7.70
2019-04-04T06:08:07.832Z,7.80
2019-04-04T06:10:38.481Z,7.80
2019-04-04T06:13:10.435Z,7.90
2019-04-04T06:15:42.393Z,8.00
2019-04-04T06:18:15.054Z,8.00
2019-04-04T06:20:48.666Z,8.10
2019-04-04T06:23:21.135Z,8.10
2019-04-04T06:25:53.831Z,8.20
2019-04-04T06:28:25.760Z,8.20
2019-04-04T06:31:00.661Z,8.30
2019-04-04T06:33:34.933Z,8.30
2019-04-04T06:36:05.358Z,8.40
2019-04-04T06:38:37.721Z,8.40
2019-04-04T06:41:09.745Z,8.50
2019-04-04T06:43:42.176Z,8.70
2019-04-04T06:46:18.957Z,8.80
2019-04-04T06:48:48.721Z,8.80
2019-04-04T06:51:20.756Z,8.90
2019-04-04T06:53:53.793Z,8.90
2019-04-04T06:56:26.839Z,9.00
2019-04-04T06:58:59.303Z,9.00
2019-04-04T07:01:32.131Z,9.20
2019-04-04T07:04:04.547Z,9.30
2019-04-04T07:06:37.493Z,9.50
2019-04-04T07:09:10.113Z,9.50
2019-04-04T07:11:42.882Z,9.60
2019-04-04T07:14:15.286Z,9.80
2019-04-04T07:16:47.369Z,9.90
2019-04-04T07:19:19.399Z,10.10
2019-04-04T07:21:52.027Z,10.20
2019-04-04T07:24:24.956Z,10.30
2019-04-04T07:26:57.064Z,10.30
2019-04-04T07:29:30.097Z,10.40
2019-04-04T07:32:02.138Z,10.60
2019-04-04T07:34:34.173Z,10.80
2019-04-04T07:37:07.149Z,10.90
2019-04-04T07:39:39.599Z,11.00
2019-04-04T07:42:11.698Z,11.10
2019-04-04T07:44:43.796Z,11.20
2019-04-04T07:47:16.775Z,11.30
2019-04-04T07:49:49.593Z,11.40
2019-04-04T07:52:21.805Z,11.60
2019-04-04T07:54:53.898Z,11.70
2019-04-04T07:57:25.962Z,11.80
2019-04-04T07:59:58.762Z,11.90
2019-04-04T08:02:31.196Z,12.00
2019-04-04T08:05:03.709Z,12.20
2019-04-04T08:07:36.149Z,12.30
2019-04-04T08:10:20.007Z,12.30
2019-04-04T08:12:43.029Z,12.30
2019-04-04T08:15:15.679Z,12.40
2019-04-04T08:17:47.888Z,12.60
2019-04-04T08:20:19.996Z,12.80
2019-04-04T08:22:52.026Z,13.00
2019-04-04T08:25:24.250Z,13.20
2019-04-04T08:27:56.695Z,13.40
2019-04-04T08:30:29.054Z,13.30
2019-04-04T08:33:01.897Z,13.30
2019-04-04T08:35:34.028Z,13.40
2019-04-04T08:38:06.549Z,13.50
2019-04-04T08:40:39.391Z,13.70
2019-04-04T08:43:11.418Z,13.80
2019-04-04T08:45:43.499Z,14.00
2019-04-04T08:48:15.851Z,14.20
2019-04-04T08:50:47.891Z,14.30
2019-04-04T08:53:19.973Z,14.50
2019-04-04T08:55:52.112Z,14.60
2019-04-04T08:58:24.136Z,14.80
2019-04-04T09:00:56.723Z,14.90
2019-04-04T09:03:28.903Z,15.20
2019-04-04T09:06:01.244Z,15.40
2019-04-04T09:08:33.352Z,15.60
2019-04-04T09:11:06.316Z,15.80
2019-04-04T09:13:39.151Z,16.10
2019-04-04T09:16:11.496Z,16.50
2019-04-04T09:18:44.363Z,16.70
2019-04-04T09:21:16.487Z,17.00
2019-04-04T09:23:48.516Z,17.20
2019-04-04T09:26:20.667Z,17.50
2019-04-04T09:28:52.712Z,17.80
2019-04-04T09:31:24.729Z,18.20
2019-04-04T09:33:57.173Z,18.60
2019-04-04T09:36:29.291Z,18.70
2019-04-04T09:39:01.448Z,18.70
2019-04-04T09:41:33.471Z,18.90
2019-04-04T09:44:06.128Z,18.90
2019-04-04T09:46:38.387Z,19.10
2019-04-04T09:49:12.922Z,19.30
2019-04-04T09:51:45.167Z,19.60
2019-04-04T09:54:19.324Z,19.50
2019-04-04T09:56:51.654Z,19.70
2019-04-04T09:59:23.989Z,19.30
2019-04-04T10:01:56.081Z,19.00
2019-04-04T10:04:28.182Z,18.80
2019-04-04T10:07:00.201Z,18.90
2019-04-04T10:09:32.673Z,19.20
2019-04-04T10:12:04.780Z,19.40
2019-04-04T10:14:37.201Z,19.70
2019-04-04T10:17:09.304Z,19.90
2019-04-04T10:19:41.437Z,20.10
2019-04-04T10:22:13.523Z,20.10
2019-04-04T10:24:45.969Z,20.10
2019-04-04T10:27:17.986Z,20.20
2019-04-04T10:29:50.930Z,20.30
2019-04-04T10:32:23.375Z,20.60
2019-04-04T10:34:55.400Z,20.60
2019-04-04T10:37:28.965Z,20.30
2019-04-04T10:40:01.300Z,20.10
2019-04-04T10:42:33.394Z,20.00
2019-04-04T10:45:06.757Z,19.80
2019-04-04T10:47:39.265Z,19.50
2019-04-04T10:50:12.591Z,19.30
2019-04-04T10:52:45.489Z,18.90
2019-04-04T10:55:18.012Z,18.70
2019-04-04T10:57:50.126Z,18.30
2019-04-04T11:00:23.373Z,18.10
2019-04-04T11:02:55.889Z,18.10
2019-04-04T11:05:28.398Z,18.40
2019-04-04T11:08:00.402Z,18.50
2019-04-04T11:10:32.531Z,18.60
2019-04-04T11:13:05.046Z,18.30
2019-04-04T11:15:37.070Z,18.00
2019-04-04T11:18:09.571Z,17.80
2019-04-04T11:20:41.612Z,17.70
2019-04-04T11:23:13.715Z,17.50
2019-04-04T11:25:46.237Z,17.20
2019-04-04T11:28:19.067Z,16.90
2019-04-04T11:30:51.170Z,16.70
2019-04-04T11:33:23.911Z,16.40
2019-04-04T11:35:56.664Z,15.90
2019-04-04T11:38:28.864Z,15.60
2019-04-04T11:41:01.401Z,15.50
2019-04-04T11:43:33.955Z,15.40
2019-04-04T11:46:06.740Z,15.10
2019-04-04T11:48:38.770Z,14.90
2019-04-04T11:51:11.425Z,14.70
2019-04-04T11:53:44.479Z,14.60
2019-04-04T11:56:16.606Z,14.50
2019-04-04T11:58:49.050Z,14.60
2019-04-04T12:01:22.443Z,14.50
2019-04-04T12:03:55.293Z,14.40
2019-04-04T12:06:28.244Z,14.20
2019-04-04T12:09:01.078Z,14.00
2019-04-04T12:11:33.194Z,13.70
2019-04-04T12:14:05.944Z,13.70
2019-04-04T12:16:38.032Z,13.60
2019-04-04T12:19:11.279Z,13.60
2019-04-04T12:21:44.292Z,13.70
2019-04-04T12:24:17.116Z,13.70
2019-04-04T12:26:49.208Z,13.80
2019-04-04T12:29:21.854Z,13.80
2019-04-04T12:31:53.872Z,13.70
2019-04-04T12:34:26.317Z,13.50
2019-04-04T12:36:58.419Z,13.50
2019-04-04T12:39:31.097Z,13.50
2019-04-04T12:42:04.039Z,13.50
2019-04-04T12:44:36.633Z,13.60
2019-04-04T12:47:09.147Z,13.70
2019-04-04T12:49:41.587Z,13.70
2019-04-04T12:52:14.410Z,13.70
2019-04-04T12:54:46.544Z,13.80
2019-04-04T12:57:18.893Z,13.70
2019-04-04T12:59:51.416Z,13.80
2019-04-04T13:02:23.945Z,13.90
2019-04-04T13:04:56.388Z,13.90
2019-04-04T13:07:28.814Z,13.90
2019-04-04T13:10:11.323Z,13.90
2019-04-04T13:12:36.138Z,13.90
2019-04-04T13:15:09.895Z,13.90
2019-04-04T13:17:42.424Z,13.90
2019-04-04T13:20:15.256Z,13.80
2019-04-04T13:22:48.057Z,13.70
2019-04-04T13:25:20.990Z,13.70
2019-04-04T13:27:53.025Z,13.70
2019-04-04T13:30:25.156Z,13.80
2019-04-04T13:32:57.178Z,13.80
2019-04-04T13:35:30.686Z,13.90
2019-04-04T13:38:02.713Z,13.90
2019-04-04T13:40:44.897Z,13.90
2019-04-04T13:43:09.932Z,14.00
2019-04-04T13:45:42.075Z,14.00
2019-04-04T13:48:14.523Z,13.90
2019-04-04T13:50:47.052Z,13.90
2019-04-04T13:53:20.853Z,14.10
2019-04-04T13:55:52.858Z,14.40
2019-04-04T13:58:24.947Z,14.70
2019-04-04T14:00:57.373Z,15.00
2019-04-04T14:03:29.813Z,15.10
2019-04-04T14:06:02.223Z,15.20
2019-04-04T14:08:34.650Z,15.10
2019-04-04T14:11:07.169Z,15.00
2019-04-04T14:13:40.179Z,15.00
2019-04-04T14:16:12.614Z,15.00
2019-04-04T14:18:45.288Z,14.80
2019-04-04T14:21:17.738Z,14.50
2019-04-04T14:23:52.060Z,14.20
2019-04-04T14:26:23.787Z,14.00
2019-04-04T14:28:56.318Z,13.80
2019-04-04T14:31:29.462Z,13.50
2019-04-04T14:34:01.507Z,13.30
2019-04-04T14:36:33.627Z,13.10
2019-04-04T14:39:07.410Z,12.90
2019-04-04T14:41:39.512Z,12.70
2019-04-04T14:44:13.200Z,12.60
2019-04-04T14:46:46.051Z,12.50
2019-04-04T14:49:18.912Z,12.40
2019-04-04T14:51:51.328Z,12.30
2019-04-04T14:54:24.275Z,12.20
2019-04-04T14:56:57.806Z,12.00
2019-04-04T14:59:29.879Z,11.90
2019-04-04T15:02:02.616Z,11.80
2019-04-04T15:04:35.140Z,11.60
2019-04-04T15:07:07.423Z,11.60
2019-04-04T15:09:39.571Z,11.60
2019-04-04T15:12:12.006Z,11.60
2019-04-04T15:14:44.897Z,11.60
2019-04-04T15:17:18.047Z,11.60
2019-04-04T15:19:50.571Z,11.50
2019-04-04T15:22:23.094Z,11.50
2019-04-04T15:24:55.432Z,11.50
2019-04-04T15:27:27.870Z,11.50
2019-04-04T15:30:00.384Z,11.40
2019-04-04T15:32:32.582Z,11.30
2019-04-04T15:35:04.851Z,11.30
2019-04-04T15:37:36.935Z,11.30
2019-04-04T15:40:10.184Z,11.30
2019-04-04T15:42:42.930Z,11.30
2019-04-04T15:45:15.232Z,11.20
2019-04-04T15:47:47.631Z,11.30
2019-04-04T15:50:19.750Z,11.30
2019-04-04T15:52:52.285Z,11.20
2019-04-04T15:55:24.315Z,11.20
2019-04-04T15:57:56.626Z,11.20
2019-04-04T16:00:29.578Z,11.10
2019-04-04T16:03:02.112Z,11.00
2019-04-04T16:05:35.133Z,10.90
2019-04-04T16:08:07.431Z,10.80
2019-04-04T16:10:39.540Z,10.80
2019-04-04T16:13:11.566Z,10.80
2019-04-04T16:15:44.000Z,10.80
2019-04-04T16:18:16.084Z,10.80
2019-04-04T16:20:48.490Z,10.70
2019-04-04T16:23:20.897Z,10.70
2019-04-04T16:25:53.412Z,10.70
2019-04-04T16:28:25.435Z,10.50
2019-04-04T16:30:57.872Z,10.30
2019-04-04T16:33:29.954Z,10.20
2019-04-04T16:36:05.197Z,10.00
2019-04-04T16:38:36.913Z,10.00
2019-04-04T16:41:08.898Z,9.90
2019-04-04T16:43:40.882Z,9.90
2019-04-04T16:46:13.771Z,9.90
2019-04-04T16:48:46.756Z,9.90
2019-04-04T16:51:19.680Z,9.80
2019-04-04T16:53:52.362Z,9.80
2019-04-04T16:56:24.749Z,9.80
2019-04-04T16:58:57.167Z,9.80
2019-04-04T17:01:29.471Z,9.80
2019-04-04T17:04:02.207Z,9.80
2019-04-04T17:06:34.872Z,9.80
2019-04-04T17:09:09.613Z,9.80
2019-04-04T17:11:42.281Z,9.80
2019-04-04T17:14:14.215Z,9.80
2019-04-04T17:16:46.150Z,9.80
2019-04-04T17:19:18.330Z,9.90
2019-04-04T17:21:50.278Z,9.90
2019-04-04T17:24:22.638Z,9.80
2019-04-04T17:26:57.399Z,9.70
2019-04-04T17:29:28.850Z,9.70
2019-04-04T17:32:01.127Z,9.70
2019-04-04T17:34:34.065Z,9.60
2019-04-04T17:37:06.578Z,9.60
2019-04-04T17:39:38.808Z,9.50
2019-04-04T17:42:10.749Z,9.50
2019-04-04T17:44:43.111Z,9.40
2019-04-04T17:47:15.779Z,9.30
2019-04-04T17:49:49.236Z,9.30
2019-04-04T17:52:21.952Z,9.20
2019-04-04T17:54:54.803Z,9.20
2019-04-04T17:57:27.231Z,9.10
2019-04-04T17:59:59.912Z,9.10
2019-04-04T18:02:33.180Z,9.00
2019-04-04T18:05:06.965Z,9.00
2019-04-04T18:07:40.054Z,9.00
2019-04-04T18:10:13.050Z,9.00
2019-04-04T18:12:44.995Z,9.00
2019-04-04T18:15:17.245Z,9.00
2019-04-04T18:17:50.271Z,8.90
2019-04-04T18:20:22.777Z,8.90
2019-04-04T18:22:54.641Z,8.90
2019-04-04T18:25:27.209Z,8.90
2019-04-04T18:27:59.554Z,8.90
2019-04-04T18:30:32.541Z,8.80
2019-04-04T18:33:06.224Z,8.80
2019-04-04T18:35:38.593Z,8.80
2019-04-04T18:38:11.535Z,8.80
2019-04-04T18:40:44.296Z,8.80
2019-04-04T18:43:16.240Z,8.80
2019-04-04T18:45:48.157Z,8.80
2019-04-04T18:48:20.877Z,8.80
2019-04-04T18:50:53.536Z,8.90
2019-04-04T18:53:26.207Z,8.90
2019-04-04T18:55:58.456Z,8.80
2019-04-04T18:58:30.388Z,8.80
2019-04-04T19:01:03.082Z,8.80
2019-04-04T19:03:36.185Z,8.80
2019-04-04T19:06:08.959Z,8.90
2019-04-04T19:08:41.633Z,8.90
2019-04-04T19:11:13.550Z,8.80
2019-04-04T19:13:45.848Z,8.80
2019-04-04T19:16:17.953Z,8.70
2019-04-04T19:18:50.905Z,8.70
2019-04-04T19:21:23.672Z,8.70
2019-04-04T19:23:55.600Z,8.70
2019-04-04T19:26:27.529Z,8.60
2019-04-04T19:29:01.075Z,8.60
2019-04-04T19:31:33.001Z,8.50
2019-04-04T19:34:05.265Z,8.40
2019-04-04T19:36:37.495Z,8.40
2019-04-04T19:39:17.001Z,8.40
2019-04-04T19:41:50.011Z,8.40
2019-04-04T19:44:21.935Z,8.30
2019-04-04T19:46:54.602Z,8.30
2019-04-04T19:49:26.633Z,8.40
2019-04-04T19:51:59.380Z,8.30
2019-04-04T19:54:31.757Z,8.30
2019-04-04T19:57:04.292Z,8.30
2019-04-04T19:59:36.758Z,8.30
2019-04-04T20:02:08.811Z,8.30
2019-04-04T20:04:41.763Z,8.20
2019-04-04T20:07:13.797Z,8.20
2019-04-04T20:09:46.044Z,8.20
2019-04-04T20:12:18.399Z,8.20
2019-04-04T20:14:50.691Z,8.20
2019-04-04T20:17:22.964Z,8.20
2019-04-04T20:19:54.892Z,8.20
2019-04-04T20:22:28.247Z,8.20
2019-04-04T20:25:00.190Z,8.20
2019-04-04T20:27:32.436Z,8.20
2019-04-04T20:30:05.491Z,8.10
2019-04-04T20:32:38.767Z,8.00
2019-04-04T20:35:12.549Z,7.90
2019-04-04T20:37:44.604Z,7.90
2019-04-04T20:40:16.512Z,7.90
2019-04-04T20:42:48.579Z,7.90
2019-04-04T20:45:21.404Z,7.90
2019-04-04T20:47:53.490Z,7.90
2019-04-04T20:50:25.619Z,7.90
2019-04-04T20:52:58.420Z,8.00
2019-04-04T20:55:30.367Z,8.00
2019-04-04T20:58:02.990Z,7.90
2019-04-04T21:00:35.326Z,7.80
2019-04-04T21:03:07.653Z,7.70
2019-04-04T21:05:41.007Z,7.70
2019-04-04T21:08:13.803Z,7.70
2019-04-04T21:10:46.562Z,7.70
2019-04-04T21:13:19.078Z,7.60
2019-04-04T21:15:51.645Z,7.60
2019-04-04T21:18:24.848Z,7.60
2019-04-04T21:20:56.783Z,7.60
2019-04-04T21:23:29.732Z,7.70
2019-04-04T21:26:01.784Z,7.70
2019-04-04T21:28:33.716Z,7.70
2019-04-04T21:31:07.486Z,7.70
2019-04-04T21:33:39.510Z,7.70
2019-04-04T21:36:11.944Z,7.70
2019-04-04T21:38:44.979Z,7.70
2019-04-04T21:41:17.294Z,7.70
2019-04-04T21:43:49.613Z,7.70
2019-04-04T21:46:21.959Z,7.60
2019-04-04T21:48:54.691Z,7.60
2019-04-04T21:51:27.052Z,7.60
2019-04-04T21:53:59.485Z,7.60
2019-04-04T21:56:32.587Z,7.60
2019-04-04T21:59:04.725Z,7.60
2019-04-04T22:01:36.841Z,7.60
2019-04-04T22:04:09.200Z,7.60
2019-04-04T22:06:41.252Z,7.50
2019-04-04T22:09:17.495Z,7.50
2019-04-04T22:11:49.875Z,7.40
2019-04-04T22:14:22.501Z,7.40
2019-04-04T22:16:55.105Z,7.40
2019-04-04T22:19:27.696Z,7.40
2019-04-04T22:21:59.649Z,7.40
2019-04-04T22:24:32.122Z,7.50
2019-04-04T22:27:04.213Z,7.50
2019-04-04T22:29:36.713Z,7.40
2019-04-04T22:32:09.232Z,7.40
2019-04-04T22:34:41.117Z,7.40
2019-04-04T22:37:13.499Z,7.40
2019-04-04T22:39:45.601Z,7.40
2019-04-04T22:42:18.102Z,7.40
2019-04-04T22:44:52.514Z,7.30
2019-04-04T22:47:24.568Z,7.30
2019-04-04T22:49:56.545Z,7.30
2019-04-04T22:52:29.019Z,7.40
2019-04-04T22:55:01.036Z,7.30
2019-04-04T22:57:33.426Z,7.40
2019-04-04T23:00:06.274Z,7.40
2019-04-04T23:02:38.233Z,7.40
2019-04-04T23:05:10.489Z,7.40
2019-04-04T23:07:42.867Z,7.40
2019-04-04T23:10:14.871Z,7.30
2019-04-04T23:12:46.814Z,7.30
2019-04-04T23:15:18.741Z,7.40
2019-04-04T23:17:51.001Z,7.30
2019-04-04T23:20:23.252Z,7.30
2019-04-04T23:22:55.181Z,7.30
2019-04-04T23:25:27.121Z,7.20
2019-04-04T23:27:59.063Z,7.20
2019-04-04T23:30:31.413Z,7.20
2019-04-04T23:33:03.770Z,7.20
2019-04-04T23:35:35.701Z,7.30
2019-04-04T23:38:08.841Z,7.30
2019-04-04T23:40:41.192Z,7.30
2019-04-04T23:43:13.554Z,7.30
2019-04-04T23:45:45.481Z,7.20
2019-04-04T23:48:17.842Z,7.20
2019-04-04T23:50:50.088Z,7.20
2019-04-04T23:53:22.866Z,7.20
2019-04-04T23:55:54.797Z,7.10
2019-04-04T23:58:27.161Z,7.10
